createdAt,value
2023-02-22T00:01:19.366Z,3.63
2023-02-22T00:03:25.156Z,3.80
2023-02-22T00:05:28.565Z,2.78
2023-02-22T00:07:30.191Z,3.88
2023-02-22T00:09:31.811Z,3.88
2023-02-22T00:11:35.560Z,3.58
2023-02-22T00:13:38.455Z,3.90
2023-02-22T00:15:44.645Z,3.40
2023-02-22T00:17:46.586Z,3.10
2023-02-22T00:19:49.289Z,4.20
2023-02-22T00:21:54.273Z,3.60
2023-02-22T00:23:56.708Z,3.83
2023-02-22T00:26:00.021Z,3.80
2023-02-22T00:28:02.448Z,4.68
2023-02-22T00:30:06.207Z,4.93
2023-02-22T00:32:07.861Z,6.20
2023-02-22T00:34:09.495Z,5.40
2023-02-22T00:36:12.883Z,5.80
2023-02-22T00:38:17.221Z,4.75
2023-02-22T00:40:23.309Z,4.85
2023-02-22T00:42:24.958Z,3.92
2023-02-22T00:44:27.501Z,5.38
2023-02-22T00:46:29.133Z,7.60
2023-02-22T00:48:31.041Z,7.45
2023-02-22T00:50:32.908Z,6.60
2023-02-22T00:52:36.098Z,6.93
2023-02-22T00:54:37.813Z,7.38
2023-02-22T00:56:39.419Z,9.00
2023-02-22T00:58:41.007Z,6.93
2023-02-22T01:00:43.278Z,7.10
2023-02-22T01:02:45.104Z,8.05
2023-02-22T01:04:46.855Z,6.75
2023-02-22T01:06:48.557Z,6.22
2023-02-22T01:08:50.163Z,4.55
2023-02-22T01:10:52.682Z,5.45
2023-02-22T01:12:54.541Z,4.55
2023-02-22T01:14:59.245Z,4.18
2023-02-22T01:17:00.889Z,3.40
2023-02-22T01:19:02.586Z,3.25
2023-02-22T01:21:05.169Z,3.22
2023-02-22T01:23:08.128Z,3.47
2023-02-22T01:25:11.847Z,2.90
2023-02-22T01:27:14.491Z,3.22
2023-02-22T01:29:17.585Z,3.80
2023-02-22T01:31:19.587Z,3.75
2023-02-22T01:33:21.761Z,2.95
2023-02-22T01:35:29.448Z,2.95
2023-02-22T01:37:35.455Z,2.78
2023-02-22T01:39:37.134Z,2.75
2023-02-22T01:41:41.516Z,3.28
2023-02-22T01:43:43.097Z,3.08
2023-02-22T01:45:49.468Z,2.83
2023-02-22T01:47:51.254Z,3.35
2023-02-22T01:49:53.290Z,4.05
2023-02-22T01:51:56.733Z,4.05
2023-02-22T01:54:04.592Z,3.83
2023-02-22T01:56:06.806Z,3.13
2023-02-22T01:58:08.910Z,3.22
2023-02-22T02:00:14.881Z,3.22
2023-02-22T02:02:16.588Z,3.15
2023-02-22T02:04:25.552Z,2.67
2023-02-22T02:06:29.011Z,2.83
2023-02-22T02:09:21.323Z,2.97
2023-02-22T02:11:25.689Z,3.42
2023-02-22T02:13:27.691Z,2.83
2023-02-22T02:15:33.367Z,2.63
2023-02-22T02:17:37.149Z,3.40
2023-02-22T02:19:41.967Z,3.08
2023-02-22T02:21:54.427Z,3.22
2023-02-22T02:24:33.542Z,3.08
2023-02-22T02:27:12.487Z,2.42
2023-02-22T02:29:38.418Z,2.20
2023-02-22T02:31:58.875Z,3.00
2023-02-22T02:34:07.072Z,2.60
2023-02-22T02:36:16.664Z,2.88
2023-02-22T02:38:58.562Z,2.80
2023-02-22T02:41:08.627Z,3.17
2023-02-22T02:43:33.880Z,3.25
2023-02-22T02:45:59.167Z,2.92
2023-02-22T02:48:02.673Z,4.13
2023-02-22T02:50:13.455Z,3.78
2023-02-22T02:52:16.992Z,4.40
2023-02-22T02:54:19.084Z,3.03
2023-02-22T02:56:20.811Z,2.47
2023-02-22T02:58:23.795Z,2.70
2023-02-22T03:00:29.129Z,3.45
2023-02-22T03:02:45.915Z,3.40
2023-02-22T03:05:11.604Z,3.55
2023-02-22T03:07:31.606Z,3.05
2023-02-22T03:10:02.250Z,2.60
2023-02-22T03:12:21.971Z,3.05
2023-02-22T03:14:33.323Z,2.92
2023-02-22T03:16:45.863Z,3.78
2023-02-22T03:18:51.896Z,2.95
2023-02-22T03:21:01.429Z,3.28
2023-02-22T03:23:40.805Z,2.78
2023-02-22T03:25:50.643Z,2.92
2023-02-22T03:27:55.875Z,2.67
2023-02-22T03:30:01.115Z,2.72
2023-02-22T03:32:06.052Z,3.20
2023-02-22T03:34:15.964Z,3.45
2023-02-22T03:36:25.058Z,3.58
2023-02-22T03:38:28.946Z,3.65
2023-02-22T03:40:36.891Z,2.65
2023-02-22T03:42:38.757Z,3.47
2023-02-22T03:44:41.673Z,3.80
2023-02-22T03:46:46.873Z,3.42
2023-02-22T03:48:54.970Z,2.78
2023-02-22T03:50:58.513Z,3.42
2023-02-22T03:53:00.467Z,2.95
2023-02-22T03:55:03.058Z,3.60
2023-02-22T03:57:08.770Z,4.03
2023-02-22T03:59:11.100Z,3.97
2023-02-22T04:01:13.300Z,3.05
2023-02-22T04:03:14.940Z,3.15
2023-02-22T04:05:17.193Z,3.42
2023-02-22T04:07:19.773Z,3.58
2023-02-22T04:09:21.524Z,3.35
2023-02-22T04:11:23.642Z,3.63
2023-02-22T04:13:25.297Z,3.08
2023-02-22T04:15:27.182Z,3.60
2023-02-22T04:17:28.804Z,4.38
2023-02-22T04:19:30.376Z,3.70
2023-02-22T04:21:32.260Z,3.40
2023-02-22T04:23:33.834Z,3.58
2023-02-22T04:25:35.540Z,3.15
2023-02-22T04:27:37.214Z,3.63
2023-02-22T04:29:38.858Z,3.53
2023-02-22T04:31:40.590Z,4.60
2023-02-22T04:33:42.678Z,3.67
2023-02-22T04:35:44.412Z,3.92
2023-02-22T04:37:46.048Z,3.80
2023-02-22T04:39:50.759Z,4.35
2023-02-22T04:41:52.410Z,4.85
2023-02-22T04:43:54.055Z,4.65
2023-02-22T04:45:55.690Z,4.45
2023-02-22T04:47:57.418Z,4.05
2023-02-22T04:50:00.471Z,4.10
2023-02-22T04:52:02.075Z,4.28
2023-02-22T04:54:03.978Z,3.83
2023-02-22T04:56:06.494Z,3.83
2023-02-22T04:58:09.503Z,3.55
2023-02-22T05:00:11.729Z,3.80
2023-02-22T05:02:13.618Z,4.68
2023-02-22T05:04:15.281Z,3.95
2023-02-22T05:06:18.176Z,4.97
2023-02-22T05:08:19.766Z,3.17
2023-02-22T05:10:21.651Z,3.97
2023-02-22T05:12:23.382Z,4.20
2023-02-22T05:14:28.063Z,3.97
2023-02-22T05:16:29.752Z,3.80
2023-02-22T05:18:31.412Z,3.10
2023-02-22T05:20:35.011Z,4.22
2023-02-22T05:22:36.640Z,3.50
2023-02-22T05:24:38.620Z,4.38
2023-02-22T05:26:40.514Z,5.15
2023-02-22T05:28:42.245Z,4.97
2023-02-22T05:30:44.074Z,3.92
2023-02-22T05:32:47.132Z,4.80
2023-02-22T05:34:49.177Z,3.88
2023-02-22T05:36:51.006Z,3.47
2023-02-22T05:38:52.597Z,3.83
2023-02-22T05:40:54.469Z,3.42
2023-02-22T05:42:57.001Z,3.58
2023-02-22T05:45:00.043Z,5.10
2023-02-22T05:47:01.642Z,3.53
2023-02-22T05:49:03.451Z,2.65
2023-02-22T05:51:05.367Z,3.42
2023-02-22T05:53:06.975Z,3.00
2023-02-22T05:55:10.492Z,3.53
2023-02-22T05:57:12.171Z,2.35
2023-02-22T05:59:13.784Z,3.55
2023-02-22T06:01:15.692Z,3.20
2023-02-22T06:03:17.430Z,3.20
2023-02-22T06:05:19.553Z,4.68
2023-02-22T06:07:21.266Z,3.03
2023-02-22T06:09:22.900Z,3.95
2023-02-22T06:11:24.637Z,3.92
2023-02-22T06:13:26.307Z,3.03
2023-02-22T06:15:29.183Z,3.42
2023-02-22T06:17:30.841Z,3.75
2023-02-22T06:19:32.475Z,3.55
2023-02-22T06:21:34.242Z,3.28
2023-02-22T06:23:35.865Z,3.80
2023-02-22T06:25:37.561Z,3.75
2023-02-22T06:27:39.227Z,2.60
2023-02-22T06:29:45.174Z,3.95
2023-02-22T06:31:46.934Z,3.92
2023-02-22T06:33:48.691Z,3.28
2023-02-22T06:35:50.926Z,3.58
2023-02-22T06:37:52.876Z,3.25
2023-02-22T06:39:54.826Z,4.75
2023-02-22T06:41:57.985Z,3.38
2023-02-22T06:43:59.643Z,4.35
2023-02-22T06:46:10.431Z,3.35
2023-02-22T06:48:12.386Z,4.65
2023-02-22T06:50:24.894Z,4.25
2023-02-22T06:52:27.183Z,4.38
2023-02-22T06:54:30.323Z,3.92
2023-02-22T06:56:32.121Z,3.80
2023-02-22T06:58:33.728Z,3.72
2023-02-22T07:00:36.054Z,4.70
2023-02-22T07:02:38.486Z,4.78
2023-02-22T07:04:43.255Z,5.97
2023-02-22T07:06:47.189Z,4.45
2023-02-22T07:08:57.990Z,4.78
2023-02-22T07:11:00.263Z,6.63
2023-02-22T07:13:02.606Z,6.20
2023-02-22T07:15:04.511Z,6.32
2023-02-22T07:17:08.017Z,7.18
2023-02-22T07:19:12.675Z,5.93
2023-02-22T07:21:15.041Z,6.35
2023-02-22T07:23:17.419Z,9.95
2023-02-22T07:25:19.635Z,10.57
2023-02-22T07:27:22.630Z,9.68
2023-02-22T07:29:24.248Z,9.35
2023-02-22T07:31:26.685Z,7.22
2023-02-22T07:33:29.444Z,5.47
2023-02-22T07:35:33.544Z,5.30
2023-02-22T07:37:42.375Z,5.75
2023-02-22T07:39:44.440Z,5.63
2023-02-22T07:41:46.329Z,5.72
2023-02-22T07:43:50.796Z,4.90
2023-02-22T07:46:08.480Z,5.57
2023-02-22T07:48:10.561Z,5.13
2023-02-22T07:50:14.477Z,5.45
2023-02-22T07:52:17.825Z,4.85
2023-02-22T07:54:26.580Z,5.55
2023-02-22T07:56:28.473Z,5.97
2023-02-22T07:58:32.061Z,6.10
2023-02-22T08:00:39.401Z,5.95
2023-02-22T08:02:48.691Z,9.50
2023-02-22T08:04:55.012Z,8.15
2023-02-22T08:06:56.683Z,5.88
2023-02-22T08:09:00.096Z,6.85
2023-02-22T08:11:17.796Z,6.28
2023-02-22T08:13:19.951Z,5.97
2023-02-22T08:15:31.520Z,3.97
2023-02-22T08:17:33.453Z,3.38
2023-02-22T08:19:40.448Z,4.20
2023-02-22T08:21:42.402Z,2.83
2023-02-22T08:23:44.059Z,3.10
2023-02-22T08:25:45.907Z,3.13
2023-02-22T08:28:01.860Z,2.92
2023-02-22T08:30:04.749Z,3.35
2023-02-22T08:32:06.797Z,3.05
2023-02-22T08:34:08.607Z,3.78
2023-02-22T08:36:10.502Z,3.40
2023-02-22T08:38:34.996Z,3.47
2023-02-22T08:40:39.898Z,4.57
2023-02-22T08:42:41.597Z,4.22
2023-02-22T08:44:52.470Z,4.45
2023-02-22T08:46:55.234Z,3.13
2023-02-22T08:48:56.986Z,4.78
2023-02-22T08:50:58.853Z,4.70
2023-02-22T08:53:02.303Z,3.40
2023-02-22T08:55:05.620Z,3.75
2023-02-22T08:57:07.852Z,4.78
2023-02-22T08:59:10.038Z,3.80
2023-02-22T09:01:12.916Z,4.53
2023-02-22T09:03:15.830Z,4.18
2023-02-22T09:05:17.694Z,3.45
2023-02-22T09:07:19.425Z,4.03
2023-02-22T09:09:21.525Z,5.28
2023-02-22T09:11:23.180Z,3.80
2023-02-22T09:13:24.779Z,4.40
2023-02-22T09:15:26.852Z,3.70
2023-02-22T09:17:28.501Z,5.28
2023-02-22T09:19:30.203Z,4.10
2023-02-22T09:21:31.906Z,3.78
2023-02-22T09:23:34.720Z,4.53
2023-02-22T09:25:41.001Z,3.92
2023-02-22T09:27:44.258Z,3.47
2023-02-22T09:29:48.400Z,3.50
2023-02-22T09:31:51.990Z,4.80
2023-02-22T09:33:58.707Z,4.32
2023-02-22T09:36:02.097Z,3.78
2023-02-22T09:38:06.675Z,3.97
2023-02-22T09:40:10.454Z,4.18
2023-02-22T09:42:31.452Z,4.47
2023-02-22T09:44:58.843Z,4.32
2023-02-22T09:47:00.743Z,4.35
2023-02-22T09:49:02.729Z,4.30
2023-02-22T09:51:11.723Z,3.40
2023-02-22T09:53:30.225Z,4.25
2023-02-22T09:55:57.628Z,4.15
2023-02-22T09:58:43.649Z,4.20
2023-02-22T10:00:51.846Z,4.18
2023-02-22T10:03:23.098Z,5.70
2023-02-22T10:05:33.930Z,6.75
2023-02-22T10:07:49.395Z,5.30
2023-02-22T10:09:52.073Z,5.25
2023-02-22T10:12:16.443Z,5.32
2023-02-22T10:14:51.978Z,5.70
2023-02-22T10:17:22.613Z,5.88
2023-02-22T10:19:43.503Z,6.22
2023-02-22T10:21:45.220Z,5.95
2023-02-22T10:24:00.159Z,7.07
2023-02-22T10:26:14.050Z,10.50
2023-02-22T10:28:20.247Z,7.40
2023-02-22T10:30:34.141Z,7.15
2023-02-22T10:32:54.790Z,5.10
2023-02-22T10:34:58.773Z,5.45
2023-02-22T10:37:26.809Z,5.70
2023-02-22T10:39:31.652Z,6.47
2023-02-22T10:41:35.185Z,5.30
2023-02-22T10:43:43.801Z,6.88
2023-02-22T10:45:45.625Z,7.50
2023-02-22T10:47:52.718Z,8.07
2023-02-22T10:49:57.483Z,8.98
2023-02-22T10:52:07.580Z,7.28
2023-02-22T10:54:15.586Z,9.18
2023-02-22T10:56:22.996Z,7.65
2023-02-22T10:58:24.701Z,8.27
2023-02-22T11:00:33.375Z,8.65
2023-02-22T11:02:36.250Z,7.63
2023-02-22T11:04:55.893Z,8.60
2023-02-22T11:06:57.842Z,8.50
2023-02-22T11:09:14.336Z,7.40
2023-02-22T11:11:29.010Z,8.02
2023-02-22T11:13:40.019Z,8.55
2023-02-22T11:15:42.203Z,8.05
2023-02-22T11:17:46.446Z,7.95
2023-02-22T11:19:49.452Z,8.38
2023-02-22T11:22:17.248Z,8.40
2023-02-22T11:24:34.593Z,8.20
2023-02-22T11:26:58.618Z,9.77
2023-02-22T11:29:20.289Z,8.23
2023-02-22T11:31:25.503Z,9.45
2023-02-22T11:33:31.318Z,9.55
2023-02-22T11:35:37.223Z,8.90
2023-02-22T11:37:39.516Z,9.65
2023-02-22T11:39:43.983Z,8.75
2023-02-22T11:41:45.672Z,8.75
2023-02-22T11:43:50.078Z,9.23
2023-02-22T11:46:05.836Z,8.93
2023-02-22T11:48:08.279Z,8.70
2023-02-22T11:50:22.381Z,9.65
2023-02-22T11:52:35.680Z,9.38
2023-02-22T11:54:53.190Z,10.75
2023-02-22T11:57:27.954Z,9.48
2023-02-22T11:59:51.554Z,9.57
2023-02-22T12:02:06.453Z,9.40
2023-02-22T12:04:50.273Z,9.00
2023-02-22T12:07:21.825Z,9.82
2023-02-22T12:09:44.543Z,9.27
2023-02-22T12:12:25.725Z,10.77
2023-02-22T12:15:01.428Z,10.50
2023-02-22T12:17:23.558Z,8.88
2023-02-22T12:20:01.849Z,10.02
2023-02-22T12:22:09.065Z,10.20
2023-02-22T12:24:26.140Z,10.45
2023-02-22T12:26:58.937Z,9.40
2023-02-22T12:29:15.072Z,9.68
2023-02-22T12:31:35.409Z,10.13
2023-02-22T12:33:55.795Z,10.13
2023-02-22T12:35:59.771Z,11.02
2023-02-22T12:38:37.349Z,9.85
2023-02-22T12:40:47.431Z,10.85
2023-02-22T12:43:06.474Z,10.10
2023-02-22T12:45:17.133Z,10.68
2023-02-22T12:47:25.871Z,11.00
2023-02-22T12:49:42.694Z,10.38
2023-02-22T12:51:52.370Z,10.10
2023-02-22T12:54:26.545Z,9.43
2023-02-22T12:56:28.391Z,10.20
2023-02-22T12:58:35.382Z,10.95
2023-02-22T13:01:07.134Z,11.35
2023-02-22T13:03:26.609Z,11.07
2023-02-22T13:05:32.883Z,11.63
2023-02-22T13:07:54.903Z,10.55
2023-02-22T13:09:59.753Z,10.48
2023-02-22T13:12:04.253Z,10.27
2023-02-22T13:14:30.288Z,9.98
2023-02-22T13:16:52.822Z,10.45
2023-02-22T13:19:13.048Z,10.80
2023-02-22T13:21:44.327Z,11.70
2023-02-22T13:24:03.627Z,10.20
2023-02-22T13:26:20.048Z,10.50
2023-02-22T13:28:44.009Z,10.77
2023-02-22T13:31:03.562Z,9.57
2023-02-22T13:33:42.361Z,10.68
2023-02-22T13:35:55.960Z,11.15
2023-02-22T13:38:20.856Z,9.63
2023-02-22T13:40:47.944Z,10.38
2023-02-22T13:42:58.410Z,10.30
2023-02-22T13:45:27.734Z,12.02
2023-02-22T13:47:45.585Z,10.15
2023-02-22T13:50:26.141Z,10.00
2023-02-22T13:52:30.444Z,9.60
2023-02-22T13:54:38.351Z,10.32
2023-02-22T13:56:44.531Z,10.38
2023-02-22T13:58:55.259Z,9.93
2023-02-22T14:01:00.745Z,6.95
2023-02-22T14:03:09.006Z,9.07
2023-02-22T14:05:42.464Z,10.07
2023-02-22T14:07:49.888Z,8.57
2023-02-22T14:09:56.226Z,8.90
2023-02-22T14:11:58.030Z,9.23
2023-02-22T14:14:01.087Z,9.00
2023-02-22T14:16:08.484Z,8.65
2023-02-22T14:18:16.466Z,8.95
2023-02-22T14:20:21.543Z,9.15
2023-02-22T14:22:28.480Z,8.77
2023-02-22T14:24:44.199Z,9.23
2023-02-22T14:27:15.285Z,10.32
2023-02-22T14:29:18.476Z,10.15
2023-02-22T14:31:35.349Z,10.27
2023-02-22T14:33:58.634Z,10.48
2023-02-22T14:36:00.419Z,11.05
2023-02-22T14:38:02.676Z,10.85
2023-02-22T14:40:18.583Z,10.23
2023-02-22T14:42:30.265Z,10.73
2023-02-22T14:44:44.975Z,10.52
2023-02-22T14:46:50.155Z,9.80
2023-02-22T14:48:59.423Z,10.98
2023-02-22T14:51:19.116Z,10.25
2023-02-22T14:53:38.378Z,10.68
2023-02-22T14:56:02.731Z,10.82
2023-02-22T14:58:19.324Z,10.23
2023-02-22T15:00:31.142Z,10.20
2023-02-22T15:02:38.986Z,10.35
2023-02-22T15:04:44.130Z,9.63
2023-02-22T15:06:46.967Z,8.98
2023-02-22T15:08:50.039Z,11.77
2023-02-22T15:10:54.384Z,11.02
2023-02-22T15:13:11.435Z,11.30
2023-02-22T15:15:21.975Z,11.40
2023-02-22T15:17:27.077Z,11.25
2023-02-22T15:19:31.460Z,10.70
2023-02-22T15:21:34.588Z,12.00
2023-02-22T15:23:52.266Z,11.00
2023-02-22T15:25:54.176Z,11.20
2023-02-22T15:28:01.214Z,11.15
2023-02-22T15:30:09.749Z,11.07
2023-02-22T15:32:33.402Z,11.07
2023-02-22T15:34:35.017Z,11.35
2023-02-22T15:36:36.707Z,13.40
2023-02-22T15:38:40.244Z,11.23
2023-02-22T15:40:46.211Z,14.30
2023-02-22T15:42:58.409Z,13.05
2023-02-22T15:45:00.085Z,13.05
2023-02-22T15:47:01.869Z,12.45
2023-02-22T15:49:17.922Z,13.00
2023-02-22T15:51:20.832Z,12.23
2023-02-22T15:53:37.612Z,13.88
2023-02-22T15:55:44.034Z,13.52
2023-02-22T15:57:45.918Z,12.95
2023-02-22T15:59:53.078Z,13.10
2023-02-22T16:01:55.086Z,13.25
2023-02-22T16:03:58.690Z,13.55
2023-02-22T16:06:00.505Z,13.73
2023-02-22T16:08:02.197Z,18.65
2023-02-22T16:10:09.258Z,16.90
2023-02-22T16:12:31.306Z,17.95
2023-02-22T16:14:35.970Z,18.25
2023-02-22T16:16:41.801Z,18.38
2023-02-22T16:18:43.767Z,18.10
2023-02-22T16:20:45.429Z,18.17
2023-02-22T16:22:51.533Z,18.13
2023-02-22T16:24:54.616Z,19.45
2023-02-22T16:27:13.030Z,19.75
2023-02-22T16:29:26.157Z,17.35
2023-02-22T16:31:35.818Z,19.35
2023-02-22T16:33:39.994Z,17.50
2023-02-22T16:35:52.020Z,18.75
2023-02-22T16:38:02.254Z,17.38
2023-02-22T16:40:04.883Z,18.50
2023-02-22T16:42:09.866Z,18.67
2023-02-22T16:44:13.042Z,17.90
2023-02-22T16:46:15.042Z,19.13
2023-02-22T16:48:26.285Z,20.73
2023-02-22T16:50:27.877Z,21.67
2023-02-22T16:52:29.540Z,24.13
2023-02-22T16:54:36.624Z,22.45
2023-02-22T16:56:40.652Z,22.02
2023-02-22T16:58:44.462Z,20.88
2023-02-22T17:00:46.237Z,22.08
2023-02-22T17:02:48.485Z,20.95
2023-02-22T17:04:50.058Z,22.13
2023-02-22T17:06:52.914Z,21.10
2023-02-22T17:08:54.544Z,21.52
2023-02-22T17:10:58.284Z,21.50
2023-02-22T17:13:07.234Z,20.25
2023-02-22T17:15:21.736Z,22.65
2023-02-22T17:17:23.793Z,19.15
2023-02-22T17:19:25.755Z,21.17
2023-02-22T17:21:27.734Z,21.88
2023-02-22T17:23:29.468Z,20.17
2023-02-22T17:25:34.782Z,19.88
2023-02-22T17:27:36.368Z,21.38
2023-02-22T17:29:37.999Z,22.58
2023-02-22T17:31:39.770Z,18.75
2023-02-22T17:33:43.803Z,20.83
2023-02-22T17:35:47.074Z,22.35
2023-02-22T17:37:50.138Z,21.55
2023-02-22T17:39:51.788Z,23.08
2023-02-22T17:41:57.760Z,23.02
2023-02-22T17:43:59.483Z,21.92
2023-02-22T17:46:07.927Z,21.80
2023-02-22T17:48:09.774Z,22.85
2023-02-22T17:50:11.827Z,21.77
2023-02-22T17:52:15.990Z,23.90
2023-02-22T17:54:17.944Z,22.67
2023-02-22T17:56:20.354Z,22.17
2023-02-22T17:58:23.685Z,22.95
2023-02-22T18:00:33.136Z,23.45
2023-02-22T18:02:34.919Z,24.88
2023-02-22T18:04:36.894Z,24.33
2023-02-22T18:06:40.101Z,23.30
2023-02-22T18:08:41.743Z,23.75
2023-02-22T18:10:44.005Z,25.20
2023-02-22T18:12:45.730Z,23.73
2023-02-22T18:14:47.387Z,22.90
2023-02-22T18:16:49.145Z,22.77
2023-02-22T18:18:50.743Z,23.13
2023-02-22T18:20:55.686Z,23.35
2023-02-22T18:22:58.776Z,23.17
2023-02-22T18:25:02.016Z,22.48
2023-02-22T18:27:06.065Z,22.63
2023-02-22T18:29:08.054Z,23.00
2023-02-22T18:31:14.751Z,23.10
2023-02-22T18:33:17.572Z,22.52
2023-02-22T18:35:19.201Z,22.05
2023-02-22T18:37:20.906Z,24.33
2023-02-22T18:39:22.671Z,23.42
2023-02-22T18:41:25.555Z,23.65
2023-02-22T18:43:28.087Z,22.05
2023-02-22T18:45:29.809Z,24.90
2023-02-22T18:47:33.041Z,22.77
2023-02-22T18:49:34.653Z,21.08
2023-02-22T18:51:36.315Z,22.20
2023-02-22T18:53:39.218Z,20.75
2023-02-22T18:55:40.884Z,21.60
2023-02-22T18:57:42.578Z,24.50
2023-02-22T18:59:44.324Z,23.85
2023-02-22T19:01:49.192Z,20.92
2023-02-22T19:03:51.939Z,21.27
2023-02-22T19:05:54.792Z,21.48
2023-02-22T19:07:56.384Z,20.48
2023-02-22T19:09:58.036Z,20.63
2023-02-22T19:11:59.697Z,21.38
2023-02-22T19:14:04.072Z,20.70
2023-02-22T19:16:07.438Z,21.75
2023-02-22T19:18:09.541Z,22.13
2023-02-22T19:20:11.269Z,20.27
2023-02-22T19:22:15.280Z,19.70
2023-02-22T19:24:20.730Z,20.65
2023-02-22T19:26:25.294Z,20.98
2023-02-22T19:28:33.973Z,20.45
2023-02-22T19:30:35.887Z,21.48
2023-02-22T19:32:38.045Z,22.77
2023-02-22T19:34:39.781Z,20.98
2023-02-22T19:36:45.901Z,21.88
2023-02-22T19:38:47.745Z,22.63
2023-02-22T19:40:49.409Z,23.95
2023-02-22T19:42:51.644Z,24.50
2023-02-22T19:44:53.837Z,24.13
2023-02-22T19:46:55.832Z,23.25
2023-02-22T19:48:58.006Z,23.92
2023-02-22T19:51:06.257Z,23.33
2023-02-22T19:53:13.999Z,24.48
2023-02-22T19:55:15.922Z,25.80
2023-02-22T19:57:17.667Z,25.75
2023-02-22T19:59:23.009Z,25.75
2023-02-22T20:01:29.967Z,24.13
2023-02-22T20:03:34.941Z,24.73
2023-02-22T20:05:40.761Z,25.25
2023-02-22T20:07:43.031Z,25.10
2023-02-22T20:09:44.720Z,24.88
2023-02-22T20:11:47.196Z,23.85
2023-02-22T20:13:48.998Z,26.73
2023-02-22T20:15:50.904Z,24.77
2023-02-22T20:17:52.585Z,24.27
2023-02-22T20:19:54.360Z,26.42
2023-02-22T20:21:56.564Z,25.33
2023-02-22T20:24:03.727Z,27.30
2023-02-22T20:26:05.506Z,26.67
2023-02-22T20:28:07.857Z,27.40
2023-02-22T20:30:10.594Z,24.00
2023-02-22T20:32:15.007Z,29.33
2023-02-22T20:34:16.850Z,24.40
2023-02-22T20:36:19.362Z,26.38
2023-02-22T20:38:21.063Z,25.40
2023-02-22T20:40:22.694Z,25.58
2023-02-22T20:42:24.400Z,23.83
2023-02-22T20:44:26.105Z,23.73
2023-02-22T20:46:31.482Z,25.17
2023-02-22T20:48:34.188Z,24.42
2023-02-22T20:50:35.877Z,23.13
2023-02-22T20:52:37.624Z,23.38
2023-02-22T20:54:39.245Z,21.88
2023-02-22T20:56:42.833Z,21.38
2023-02-22T20:58:45.127Z,22.65
2023-02-22T21:00:47.145Z,22.13
2023-02-22T21:02:48.881Z,20.95
2023-02-22T21:04:50.545Z,20.88
2023-02-22T21:06:52.425Z,22.60
2023-02-22T21:08:55.672Z,21.10
2023-02-22T21:10:58.194Z,20.63
2023-02-22T21:12:59.915Z,19.58
2023-02-22T21:15:01.675Z,20.58
2023-02-22T21:17:04.691Z,21.08
2023-02-22T21:19:07.508Z,20.27
2023-02-22T21:21:12.633Z,18.83
2023-02-22T21:23:15.835Z,18.88
2023-02-22T21:25:17.445Z,19.40
2023-02-22T21:27:19.089Z,20.15
2023-02-22T21:29:20.762Z,19.02
2023-02-22T21:31:24.740Z,18.85
2023-02-22T21:33:27.897Z,19.23
2023-02-22T21:35:30.652Z,19.52
2023-02-22T21:37:34.112Z,19.52
2023-02-22T21:39:35.811Z,17.95
2023-02-22T21:41:40.520Z,19.63
2023-02-22T21:43:43.415Z,18.70
2023-02-22T21:45:45.150Z,17.55
2023-02-22T21:47:47.718Z,17.92
2023-02-22T21:49:52.148Z,17.95
2023-02-22T21:51:53.911Z,18.60
2023-02-22T21:53:55.545Z,17.90
2023-02-22T21:56:03.404Z,18.67
2023-02-22T21:58:06.045Z,18.73
2023-02-22T22:00:17.056Z,18.23
2023-02-22T22:02:20.137Z,19.60
2023-02-22T22:04:29.107Z,19.13
2023-02-22T22:06:32.423Z,18.92
2023-02-22T22:08:35.291Z,19.52
2023-02-22T22:10:36.962Z,19.95
2023-02-22T22:12:42.004Z,18.42
2023-02-22T22:14:43.618Z,20.27
2023-02-22T22:16:49.313Z,20.75
2023-02-22T22:18:51.100Z,22.27
2023-02-22T22:20:52.734Z,21.05
2023-02-22T22:22:55.049Z,23.13
2023-02-22T22:24:56.672Z,22.98
2023-02-22T22:27:03.674Z,20.90
2023-02-22T22:29:05.899Z,21.02
2023-02-22T22:31:08.877Z,22.98
2023-02-22T22:33:11.514Z,20.80
2023-02-22T22:35:14.682Z,22.90
2023-02-22T22:37:16.848Z,23.55
2023-02-22T22:39:21.170Z,23.60
2023-02-22T22:41:23.728Z,23.52
2023-02-22T22:43:25.411Z,22.48
2023-02-22T22:45:27.093Z,24.33
2023-02-22T22:47:29.491Z,24.48
2023-02-22T22:49:32.643Z,23.77
2023-02-22T22:51:34.516Z,25.05
2023-02-22T22:53:37.925Z,24.95
2023-02-22T22:55:43.676Z,26.10
2023-02-22T22:57:45.348Z,27.25
2023-02-22T22:59:47.039Z,23.92
2023-02-22T23:01:48.901Z,24.30
2023-02-22T23:03:56.862Z,25.35
2023-02-22T23:06:02.312Z,22.88
2023-02-22T23:08:05.655Z,24.23
2023-02-22T23:10:12.719Z,23.52
2023-02-22T23:12:17.712Z,22.38
2023-02-22T23:14:26.561Z,24.90
2023-02-22T23:16:28.729Z,22.63
2023-02-22T23:18:34.010Z,22.67
2023-02-22T23:20:39.082Z,22.55
2023-02-22T23:22:43.695Z,23.77
2023-02-22T23:24:45.636Z,21.67
2023-02-22T23:26:51.683Z,23.38
2023-02-22T23:28:55.495Z,20.70
2023-02-22T23:31:03.345Z,20.75
2023-02-22T23:33:05.028Z,22.38
2023-02-22T23:35:07.343Z,21.30
2023-02-22T23:37:10.708Z,21.33
2023-02-22T23:39:14.451Z,21.30
2023-02-22T23:41:17.061Z,20.33
2023-02-22T23:43:20.093Z,20.00
2023-02-22T23:45:23.323Z,19.23
2023-02-22T23:47:25.091Z,20.80
2023-02-22T23:49:35.611Z,19.95
2023-02-22T23:51:44.607Z,20.73
2023-02-22T23:53:47.032Z,19.83
2023-02-22T23:55:49.214Z,21.90
2023-02-22T23:57:50.945Z,20.08
2023-02-22T23:59:52.545Z,19.98
